sensor_id;sensor_type;location;lat;lon;timestamp;temperature;humidity
19252;DHT22;9760;50.944;5.304;2024-03-07T00:02:09;5.20;99.90
19252;DHT22;9760;50.944;5.304;2024-03-07T00:04:34;5.10;99.90
19252;DHT22;9760;50.944;5.304;2024-03-07T00:07:03;5.10;99.90
19252;DHT22;9760;50.944;5.304;2024-03-07T00:09:32;5.10;99.90
19252;DHT22;9760;50.944;5.304;2024-03-07T00:11:59;5.10;99.90
19252;DHT22;9760;50.944;5.304;2024-03-07T00:14:24;5.10;99.90
19252;DHT22;9760;50.944;5.304;2024-03-07T00:16:53;5.10;99.90
19252;DHT22;9760;50.944;5.304;2024-03-07T00:19:19;5.00;99.90
19252;DHT22;9760;50.944;5.304;2024-03-07T00:21:44;5.00;99.90
19252;DHT22;9760;50.944;5.304;2024-03-07T00:24:10;5.10;99.90
19252;DHT22;9760;50.944;5.304;2024-03-07T00:26:36;5.10;99.90
19252;DHT22;9760;50.944;5.304;2024-03-07T00:29:01;5.20;99.90
19252;DHT22;9760;50.944;5.304;2024-03-07T00:31:27;5.20;99.90
19252;DHT22;9760;50.944;5.304;2024-03-07T00:33:55;5.20;99.90
19252;DHT22;9760;50.944;5.304;2024-03-07T00:36:22;5.10;99.90
19252;DHT22;9760;50.944;5.304;2024-03-07T00:38:47;5.10;99.90
19252;DHT22;9760;50.944;5.304;2024-03-07T00:41:13;5.10;99.90
19252;DHT22;9760;50.944;5.304;2024-03-07T00:43:39;5.10;99.90
19252;DHT22;9760;50.944;5.304;2024-03-07T00:46:05;5.10;99.90
19252;DHT22;9760;50.944;5.304;2024-03-07T00:48:32;5.00;99.90
19252;DHT22;9760;50.944;5.304;2024-03-07T00:50:57;5.00;99.90
19252;DHT22;9760;50.944;5.304;2024-03-07T00:53:23;5.10;99.90
19252;DHT22;9760;50.944;5.304;2024-03-07T00:55:48;5.00;99.90
19252;DHT22;9760;50.944;5.304;2024-03-07T00:58:14;4.90;99.90
19252;DHT22;9760;50.944;5.304;2024-03-07T01:00:40;5.00;99.90
19252;DHT22;9760;50.944;5.304;2024-03-07T01:03:09;5.00;99.90
19252;DHT22;9760;50.944;5.304;2024-03-07T01:05:37;5.00;99.90
19252;DHT22;9760;50.944;5.304;2024-03-07T01:08:04;5.10;99.90
19252;DHT22;9760;50.944;5.304;2024-03-07T01:10:30;5.10;99.90
19252;DHT22;9760;50.944;5.304;2024-03-07T01:12:56;5.10;99.90
19252;DHT22;9760;50.944;5.304;2024-03-07T01:15:27;5.20;99.90
19252;DHT22;9760;50.944;5.304;2024-03-07T01:17:52;5.20;99.90
19252;DHT22;9760;50.944;5.304;2024-03-07T01:20:18;5.20;99.90
19252;DHT22;9760;50.944;5.304;2024-03-07T01:22:44;5.20;99.90
19252;DHT22;9760;50.944;5.304;2024-03-07T01:25:10;5.20;99.90
19252;DHT22;9760;50.944;5.304;2024-03-07T01:27:38;5.10;99.90
19252;DHT22;9760;50.944;5.304;2024-03-07T01:30:04;5.00;99.90
19252;DHT22;9760;50.944;5.304;2024-03-07T01:32:33;4.90;99.90
19252;DHT22;9760;50.944;5.304;2024-03-07T01:34:59;4.80;99.90
19252;DHT22;9760;50.944;5.304;2024-03-07T01:37:24;4.70;99.90
19252;DHT22;9760;50.944;5.304;2024-03-07T01:39:50;4.80;99.90
19252;DHT22;9760;50.944;5.304;2024-03-07T01:42:16;4.80;99.90
19252;DHT22;9760;50.944;5.304;2024-03-07T01:44:41;4.80;99.90
19252;DHT22;9760;50.944;5.304;2024-03-07T01:47:09;4.90;99.90
19252;DHT22;9760;50.944;5.304;2024-03-07T01:49:36;4.80;99.90
19252;DHT22;9760;50.944;5.304;2024-03-07T01:52:04;4.80;99.90
19252;DHT22;9760;50.944;5.304;2024-03-07T01:54:30;4.90;99.90
19252;DHT22;9760;50.944;5.304;2024-03-07T01:56:56;4.80;99.90
19252;DHT22;9760;50.944;5.304;2024-03-07T01:59:22;4.80;99.90
19252;DHT22;9760;50.944;5.304;2024-03-07T02:01:50;4.80;99.90
19252;DHT22;9760;50.944;5.304;2024-03-07T02:04:16;4.70;99.90
19252;DHT22;9760;50.944;5.304;2024-03-07T02:06:41;4.50;99.90
19252;DHT22;9760;50.944;5.304;2024-03-07T02:09:07;4.50;99.90
19252;DHT22;9760;50.944;5.304;2024-03-07T02:11:33;4.40;99.90
19252;DHT22;9760;50.944;5.304;2024-03-07T02:13:58;4.40;99.90
19252;DHT22;9760;50.944;5.304;2024-03-07T02:16:24;4.40;99.90
19252;DHT22;9760;50.944;5.304;2024-03-07T02:18:50;4.40;99.90
19252;DHT22;9760;50.944;5.304;2024-03-07T02:21:16;4.40;99.90
19252;DHT22;9760;50.944;5.304;2024-03-07T02:23:42;4.40;99.90
19252;DHT22;9760;50.944;5.304;2024-03-07T02:26:07;4.30;99.90
19252;DHT22;9760;50.944;5.304;2024-03-07T02:28:34;4.30;99.90
19252;DHT22;9760;50.944;5.304;2024-03-07T02:31:00;4.20;99.90
19252;DHT22;9760;50.944;5.304;2024-03-07T02:33:26;4.20;99.90
19252;DHT22;9760;50.944;5.304;2024-03-07T02:35:52;4.30;99.90
19252;DHT22;9760;50.944;5.304;2024-03-07T02:38:18;4.40;99.90
19252;DHT22;9760;50.944;5.304;2024-03-07T02:40:43;4.50;99.90
19252;DHT22;9760;50.944;5.304;2024-03-07T02:43:09;4.50;99.90
19252;DHT22;9760;50.944;5.304;2024-03-07T02:45:34;4.50;99.90
19252;DHT22;9760;50.944;5.304;2024-03-07T02:48:00;4.50;99.90
19252;DHT22;9760;50.944;5.304;2024-03-07T02:50:26;4.50;99.90
19252;DHT22;9760;50.944;5.304;2024-03-07T02:52:52;4.50;99.90
19252;DHT22;9760;50.944;5.304;2024-03-07T02:55:18;4.40;99.90
19252;DHT22;9760;50.944;5.304;2024-03-07T02:57:44;4.30;99.90
19252;DHT22;9760;50.944;5.304;2024-03-07T03:00:11;4.30;99.90
19252;DHT22;9760;50.944;5.304;2024-03-07T03:02:52;4.30;99.90
19252;DHT22;9760;50.944;5.304;2024-03-07T03:05:18;4.30;99.90
19252;DHT22;9760;50.944;5.304;2024-03-07T03:07:44;4.20;99.90
19252;DHT22;9760;50.944;5.304;2024-03-07T03:10:21;4.20;99.90
19252;DHT22;9760;50.944;5.304;2024-03-07T03:12:52;4.00;99.90
19252;DHT22;9760;50.944;5.304;2024-03-07T03:15:18;4.20;99.90
19252;DHT22;9760;50.944;5.304;2024-03-07T03:17:47;4.30;99.90
19252;DHT22;9760;50.944;5.304;2024-03-07T03:20:13;4.30;99.90
19252;DHT22;9760;50.944;5.304;2024-03-07T03:22:54;4.30;99.90
19252;DHT22;9760;50.944;5.304;2024-03-07T03:25:21;4.30;99.90
19252;DHT22;9760;50.944;5.304;2024-03-07T03:27:47;4.30;99.90
19252;DHT22;9760;50.944;5.304;2024-03-07T03:30:13;4.30;99.90
19252;DHT22;9760;50.944;5.304;2024-03-07T03:32:42;4.30;99.90
19252;DHT22;9760;50.944;5.304;2024-03-07T03:35:08;4.30;99.90
19252;DHT22;9760;50.944;5.304;2024-03-07T03:37:42;4.30;99.90
19252;DHT22;9760;50.944;5.304;2024-03-07T03:40:08;4.40;99.90
19252;DHT22;9760;50.944;5.304;2024-03-07T03:42:38;4.40;99.90
19252;DHT22;9760;50.944;5.304;2024-03-07T03:45:05;4.40;99.90
19252;DHT22;9760;50.944;5.304;2024-03-07T03:47:36;4.40;99.90
19252;DHT22;9760;50.944;5.304;2024-03-07T03:50:06;4.40;99.90
19252;DHT22;9760;50.944;5.304;2024-03-07T03:52:32;4.30;99.90
19252;DHT22;9760;50.944;5.304;2024-03-07T03:54:59;4.40;99.90
19252;DHT22;9760;50.944;5.304;2024-03-07T03:57:28;4.40;99.90
19252;DHT22;9760;50.944;5.304;2024-03-07T03:59:55;4.30;99.90
19252;DHT22;9760;50.944;5.304;2024-03-07T04:02:22;4.30;99.90
19252;DHT22;9760;50.944;5.304;2024-03-07T04:04:51;4.30;99.90
19252;DHT22;9760;50.944;5.304;2024-03-07T04:07:20;4.30;99.90
19252;DHT22;9760;50.944;5.304;2024-03-07T04:09:46;4.30;99.90
19252;DHT22;9760;50.944;5.304;2024-03-07T04:12:12;4.30;99.90
19252;DHT22;9760;50.944;5.304;2024-03-07T04:14:44;4.30;99.90
19252;DHT22;9760;50.944;5.304;2024-03-07T04:17:11;4.20;99.90
19252;DHT22;9760;50.944;5.304;2024-03-07T04:19:42;4.20;99.90
19252;DHT22;9760;50.944;5.304;2024-03-07T04:22:09;4.20;99.90
19252;DHT22;9760;50.944;5.304;2024-03-07T04:24:38;4.20;99.90
19252;DHT22;9760;50.944;5.304;2024-03-07T04:27:04;4.20;99.90
19252;DHT22;9760;50.944;5.304;2024-03-07T04:29:34;4.20;99.90
19252;DHT22;9760;50.944;5.304;2024-03-07T04:32:00;4.20;99.90
19252;DHT22;9760;50.944;5.304;2024-03-07T04:34:27;4.20;99.90
19252;DHT22;9760;50.944;5.304;2024-03-07T04:36:53;4.20;99.90
19252;DHT22;9760;50.944;5.304;2024-03-07T04:39:19;4.20;99.90
19252;DHT22;9760;50.944;5.304;2024-03-07T04:41:58;4.10;99.90
19252;DHT22;9760;50.944;5.304;2024-03-07T04:44:26;4.10;99.90
19252;DHT22;9760;50.944;5.304;2024-03-07T04:46:52;4.10;99.90
19252;DHT22;9760;50.944;5.304;2024-03-07T04:49:24;4.10;99.90
19252;DHT22;9760;50.944;5.304;2024-03-07T04:51:54;4.10;99.90
19252;DHT22;9760;50.944;5.304;2024-03-07T04:54:22;4.10;99.90
19252;DHT22;9760;50.944;5.304;2024-03-07T04:56:49;4.10;99.90
19252;DHT22;9760;50.944;5.304;2024-03-07T04:59:16;4.10;99.90
19252;DHT22;9760;50.944;5.304;2024-03-07T05:01:43;4.20;99.90
19252;DHT22;9760;50.944;5.304;2024-03-07T05:04:09;4.20;99.90
19252;DHT22;9760;50.944;5.304;2024-03-07T05:06:35;4.30;99.90
19252;DHT22;9760;50.944;5.304;2024-03-07T05:09:05;4.40;99.90
19252;DHT22;9760;50.944;5.304;2024-03-07T05:11:33;4.40;99.90
19252;DHT22;9760;50.944;5.304;2024-03-07T05:13:59;4.40;99.90
19252;DHT22;9760;50.944;5.304;2024-03-07T05:16:26;4.50;99.90
19252;DHT22;9760;50.944;5.304;2024-03-07T05:18:52;4.50;99.90
19252;DHT22;9760;50.944;5.304;2024-03-07T05:21:19;4.60;99.90
19252;DHT22;9760;50.944;5.304;2024-03-07T05:24:10;4.50;99.90
19252;DHT22;9760;50.944;5.304;2024-03-07T05:26:36;4.50;99.90
19252;DHT22;9760;50.944;5.304;2024-03-07T05:29:07;4.40;99.90
19252;DHT22;9760;50.944;5.304;2024-03-07T05:31:39;4.40;99.90
19252;DHT22;9760;50.944;5.304;2024-03-07T05:34:15;4.50;99.90
19252;DHT22;9760;50.944;5.304;2024-03-07T05:36:44;4.40;99.90
19252;DHT22;9760;50.944;5.304;2024-03-07T05:39:12;4.50;99.90
19252;DHT22;9760;50.944;5.304;2024-03-07T05:41:39;4.40;99.90
19252;DHT22;9760;50.944;5.304;2024-03-07T05:44:05;4.50;99.90
19252;DHT22;9760;50.944;5.304;2024-03-07T05:46:38;4.50;99.90
19252;DHT22;9760;50.944;5.304;2024-03-07T05:49:09;4.50;99.90
19252;DHT22;9760;50.944;5.304;2024-03-07T05:51:35;4.60;99.90
19252;DHT22;9760;50.944;5.304;2024-03-07T05:54:03;4.50;99.90
19252;DHT22;9760;50.944;5.304;2024-03-07T05:56:33;4.60;99.90
19252;DHT22;9760;50.944;5.304;2024-03-07T05:59:02;4.60;99.90
19252;DHT22;9760;50.944;5.304;2024-03-07T06:01:30;4.50;99.90
19252;DHT22;9760;50.944;5.304;2024-03-07T06:04:03;4.50;99.90
19252;DHT22;9760;50.944;5.304;2024-03-07T06:06:31;4.50;99.90
19252;DHT22;9760;50.944;5.304;2024-03-07T06:09:07;4.60;99.90
19252;DHT22;9760;50.944;5.304;2024-03-07T06:11:37;4.50;99.90
19252;DHT22;9760;50.944;5.304;2024-03-07T06:14:04;4.40;99.90
19252;DHT22;9760;50.944;5.304;2024-03-07T06:16:37;4.50;99.90
19252;DHT22;9760;50.944;5.304;2024-03-07T06:19:04;4.60;99.90
19252;DHT22;9760;50.944;5.304;2024-03-07T06:21:32;4.60;99.90
19252;DHT22;9760;50.944;5.304;2024-03-07T06:24:02;4.60;99.90
19252;DHT22;9760;50.944;5.304;2024-03-07T06:26:32;4.70;99.90
19252;DHT22;9760;50.944;5.304;2024-03-07T06:29:11;4.70;99.90
19252;DHT22;9760;50.944;5.304;2024-03-07T06:31:40;4.70;99.90
19252;DHT22;9760;50.944;5.304;2024-03-07T06:34:08;4.70;99.90
19252;DHT22;9760;50.944;5.304;2024-03-07T06:36:35;4.70;99.90
19252;DHT22;9760;50.944;5.304;2024-03-07T06:39:01;4.80;99.90
19252;DHT22;9760;50.944;5.304;2024-03-07T06:41:28;4.70;99.90
19252;DHT22;9760;50.944;5.304;2024-03-07T06:43:54;4.70;99.90
19252;DHT22;9760;50.944;5.304;2024-03-07T06:46:20;4.70;99.90
19252;DHT22;9760;50.944;5.304;2024-03-07T06:48:46;4.70;99.90
19252;DHT22;9760;50.944;5.304;2024-03-07T06:51:12;4.70;99.90
19252;DHT22;9760;50.944;5.304;2024-03-07T06:53:38;4.70;99.90
19252;DHT22;9760;50.944;5.304;2024-03-07T06:56:05;4.60;99.90
19252;DHT22;9760;50.944;5.304;2024-03-07T06:58:32;4.60;99.90
19252;DHT22;9760;50.944;5.304;2024-03-07T07:00:58;4.50;99.90
19252;DHT22;9760;50.944;5.304;2024-03-07T07:03:25;4.50;99.90
19252;DHT22;9760;50.944;5.304;2024-03-07T07:05:53;4.50;99.90
19252;DHT22;9760;50.944;5.304;2024-03-07T07:08:20;4.50;99.90
19252;DHT22;9760;50.944;5.304;2024-03-07T07:10:45;4.50;99.90
19252;DHT22;9760;50.944;5.304;2024-03-07T07:13:12;4.60;99.90
19252;DHT22;9760;50.944;5.304;2024-03-07T07:15:39;4.60;99.90
19252;DHT22;9760;50.944;5.304;2024-03-07T07:18:05;4.60;99.90
19252;DHT22;9760;50.944;5.304;2024-03-07T07:20:33;4.70;99.90
19252;DHT22;9760;50.944;5.304;2024-03-07T07:23:00;4.70;99.90
19252;DHT22;9760;50.944;5.304;2024-03-07T07:25:27;4.80;99.90
19252;DHT22;9760;50.944;5.304;2024-03-07T07:27:53;4.80;99.90
19252;DHT22;9760;50.944;5.304;2024-03-07T07:30:20;4.80;99.90
19252;DHT22;9760;50.944;5.304;2024-03-07T07:32:50;4.80;99.90
19252;DHT22;9760;50.944;5.304;2024-03-07T07:35:17;4.80;99.90
19252;DHT22;9760;50.944;5.304;2024-03-07T07:37:44;4.90;99.90
19252;DHT22;9760;50.944;5.304;2024-03-07T07:40:13;4.90;99.90
19252;DHT22;9760;50.944;5.304;2024-03-07T07:42:40;5.00;99.90
19252;DHT22;9760;50.944;5.304;2024-03-07T07:45:08;5.00;99.90
19252;DHT22;9760;50.944;5.304;2024-03-07T07:47:47;5.10;99.90
19252;DHT22;9760;50.944;5.304;2024-03-07T07:50:16;5.20;99.90
19252;DHT22;9760;50.944;5.304;2024-03-07T07:55:11;5.30;99.90
19252;DHT22;9760;50.944;5.304;2024-03-07T07:57:47;5.30;99.90
19252;DHT22;9760;50.944;5.304;2024-03-07T08:00:16;5.50;99.90
19252;DHT22;9760;50.944;5.304;2024-03-07T08:02:53;5.60;99.90
19252;DHT22;9760;50.944;5.304;2024-03-07T08:05:31;5.60;99.90
19252;DHT22;9760;50.944;5.304;2024-03-07T08:08:03;5.70;99.90
19252;DHT22;9760;50.944;5.304;2024-03-07T08:10:30;5.70;99.90
19252;DHT22;9760;50.944;5.304;2024-03-07T08:13:01;5.80;99.90
19252;DHT22;9760;50.944;5.304;2024-03-07T08:15:28;5.90;99.90
19252;DHT22;9760;50.944;5.304;2024-03-07T08:17:54;6.00;99.90
19252;DHT22;9760;50.944;5.304;2024-03-07T08:20:21;6.00;99.90
19252;DHT22;9760;50.944;5.304;2024-03-07T08:22:48;6.10;99.90
19252;DHT22;9760;50.944;5.304;2024-03-07T08:25:21;6.10;99.90
19252;DHT22;9760;50.944;5.304;2024-03-07T08:27:49;6.20;99.90
19252;DHT22;9760;50.944;5.304;2024-03-07T08:30:16;6.30;99.90
19252;DHT22;9760;50.944;5.304;2024-03-07T08:32:46;6.40;99.90
19252;DHT22;9760;50.944;5.304;2024-03-07T08:35:12;6.50;99.90
19252;DHT22;9760;50.944;5.304;2024-03-07T08:37:39;6.60;99.90
19252;DHT22;9760;50.944;5.304;2024-03-07T08:40:06;6.70;99.90
19252;DHT22;9760;50.944;5.304;2024-03-07T08:42:33;6.90;99.90
19252;DHT22;9760;50.944;5.304;2024-03-07T08:45:01;6.90;99.90
19252;DHT22;9760;50.944;5.304;2024-03-07T08:47:33;7.00;99.90
19252;DHT22;9760;50.944;5.304;2024-03-07T08:50:00;7.10;99.90
19252;DHT22;9760;50.944;5.304;2024-03-07T08:52:26;7.10;99.90
19252;DHT22;9760;50.944;5.304;2024-03-07T08:54:52;7.30;99.90
19252;DHT22;9760;50.944;5.304;2024-03-07T08:57:18;7.50;99.90
19252;DHT22;9760;50.944;5.304;2024-03-07T08:59:45;7.60;99.90
19252;DHT22;9760;50.944;5.304;2024-03-07T09:02:11;7.70;99.90
19252;DHT22;9760;50.944;5.304;2024-03-07T09:04:39;7.90;99.90
19252;DHT22;9760;50.944;5.304;2024-03-07T09:07:06;8.00;99.90
19252;DHT22;9760;50.944;5.304;2024-03-07T09:09:34;8.00;99.90
19252;DHT22;9760;50.944;5.304;2024-03-07T09:12:01;8.10;99.90
19252;DHT22;9760;50.944;5.304;2024-03-07T09:14:30;8.20;99.90
19252;DHT22;9760;50.944;5.304;2024-03-07T09:16:56;8.30;99.90
19252;DHT22;9760;50.944;5.304;2024-03-07T09:19:23;8.40;99.90
19252;DHT22;9760;50.944;5.304;2024-03-07T09:21:53;8.50;99.90
19252;DHT22;9760;50.944;5.304;2024-03-07T09:24:19;8.60;99.90
19252;DHT22;9760;50.944;5.304;2024-03-07T09:26:49;8.60;99.90
19252;DHT22;9760;50.944;5.304;2024-03-07T09:29:16;8.50;99.90
19252;DHT22;9760;50.944;5.304;2024-03-07T09:31:41;8.70;99.90
19252;DHT22;9760;50.944;5.304;2024-03-07T09:34:07;8.70;99.90
19252;DHT22;9760;50.944;5.304;2024-03-07T09:36:34;8.80;99.90
19252;DHT22;9760;50.944;5.304;2024-03-07T09:39:00;9.00;99.90
19252;DHT22;9760;50.944;5.304;2024-03-07T09:41:26;9.00;99.90
19252;DHT22;9760;50.944;5.304;2024-03-07T09:43:52;9.20;99.90
19252;DHT22;9760;50.944;5.304;2024-03-07T09:46:22;9.40;99.90
19252;DHT22;9760;50.944;5.304;2024-03-07T09:48:49;9.50;99.90
19252;DHT22;9760;50.944;5.304;2024-03-07T09:51:20;9.60;99.90
19252;DHT22;9760;50.944;5.304;2024-03-07T09:53:49;9.60;99.90
19252;DHT22;9760;50.944;5.304;2024-03-07T09:56:19;9.70;99.90
19252;DHT22;9760;50.944;5.304;2024-03-07T09:58:49;9.90;99.90
19252;DHT22;9760;50.944;5.304;2024-03-07T10:01:17;9.90;99.90
19252;DHT22;9760;50.944;5.304;2024-03-07T10:03:47;9.90;99.90
19252;DHT22;9760;50.944;5.304;2024-03-07T10:06:13;9.70;99.90
19252;DHT22;9760;50.944;5.304;2024-03-07T10:08:42;9.80;99.90
19252;DHT22;9760;50.944;5.304;2024-03-07T10:11:07;9.90;99.90
19252;DHT22;9760;50.944;5.304;2024-03-07T10:13:34;10.30;99.90
19252;DHT22;9760;50.944;5.304;2024-03-07T10:16:03;10.50;99.90
19252;DHT22;9760;50.944;5.304;2024-03-07T10:18:31;10.70;99.90
19252;DHT22;9760;50.944;5.304;2024-03-07T10:20:57;10.30;99.90
19252;DHT22;9760;50.944;5.304;2024-03-07T10:23:23;10.50;99.90
19252;DHT22;9760;50.944;5.304;2024-03-07T10:25:50;10.90;99.90
19252;DHT22;9760;50.944;5.304;2024-03-07T10:28:18;11.00;99.90
19252;DHT22;9760;50.944;5.304;2024-03-07T10:30:46;10.90;99.90
19252;DHT22;9760;50.944;5.304;2024-03-07T10:33:13;11.40;99.90
19252;DHT22;9760;50.944;5.304;2024-03-07T10:35:39;11.50;99.90
19252;DHT22;9760;50.944;5.304;2024-03-07T10:38:04;10.50;99.90
19252;DHT22;9760;50.944;5.304;2024-03-07T10:40:32;10.10;99.90
19252;DHT22;9760;50.944;5.304;2024-03-07T10:42:59;10.10;99.90
19252;DHT22;9760;50.944;5.304;2024-03-07T10:45:33;9.70;99.90
19252;DHT22;9760;50.944;5.304;2024-03-07T10:48:03;9.80;99.90
19252;DHT22;9760;50.944;5.304;2024-03-07T10:54:01;10.10;99.90
19252;DHT22;9760;50.944;5.304;2024-03-07T10:59:18;10.60;99.90
19252;DHT22;9760;50.944;5.304;2024-03-07T11:01:57;9.70;99.90
19252;DHT22;9760;50.944;5.304;2024-03-07T11:04:25;9.60;99.90
19252;DHT22;9760;50.944;5.304;2024-03-07T11:06:50;9.50;99.90
19252;DHT22;9760;50.944;5.304;2024-03-07T11:09:16;9.50;99.90
19252;DHT22;9760;50.944;5.304;2024-03-07T11:11:49;9.70;99.90
19252;DHT22;9760;50.944;5.304;2024-03-07T11:14:16;9.80;99.90
19252;DHT22;9760;50.944;5.304;2024-03-07T11:16:43;9.80;99.90
19252;DHT22;9760;50.944;5.304;2024-03-07T11:19:24;10.20;99.90
19252;DHT22;9760;50.944;5.304;2024-03-07T11:21:52;10.70;99.90
19252;DHT22;9760;50.944;5.304;2024-03-07T11:24:25;11.30;99.90
19252;DHT22;9760;50.944;5.304;2024-03-07T11:26:52;12.20;99.90
19252;DHT22;9760;50.944;5.304;2024-03-07T11:29:42;12.60;99.90
19252;DHT22;9760;50.944;5.304;2024-03-07T11:32:10;12.60;99.90
19252;DHT22;9760;50.944;5.304;2024-03-07T11:34:39;12.00;99.90
19252;DHT22;9760;50.944;5.304;2024-03-07T11:37:10;11.90;99.90
19252;DHT22;9760;50.944;5.304;2024-03-07T11:39:47;11.80;99.90
19252;DHT22;9760;50.944;5.304;2024-03-07T11:42:29;11.00;99.90
19252;DHT22;9760;50.944;5.304;2024-03-07T11:45:01;11.20;99.90
19252;DHT22;9760;50.944;5.304;2024-03-07T11:47:38;11.30;99.90
19252;DHT22;9760;50.944;5.304;2024-03-07T11:50:05;11.10;99.90
19252;DHT22;9760;50.944;5.304;2024-03-07T11:52:39;11.40;99.90
19252;DHT22;9760;50.944;5.304;2024-03-07T11:55:09;11.60;99.90
19252;DHT22;9760;50.944;5.304;2024-03-07T11:57:36;11.30;99.90
19252;DHT22;9760;50.944;5.304;2024-03-07T12:00:04;11.50;99.90
19252;DHT22;9760;50.944;5.304;2024-03-07T12:02:37;11.90;99.90
19252;DHT22;9760;50.944;5.304;2024-03-07T12:05:06;11.80;99.90
19252;DHT22;9760;50.944;5.304;2024-03-07T12:07:32;11.50;99.90
19252;DHT22;9760;50.944;5.304;2024-03-07T12:10:00;11.40;99.90
19252;DHT22;9760;50.944;5.304;2024-03-07T12:12:29;11.30;99.90
19252;DHT22;9760;50.944;5.304;2024-03-07T12:14:55;11.20;99.90
19252;DHT22;9760;50.944;5.304;2024-03-07T12:17:22;11.10;99.90
19252;DHT22;9760;50.944;5.304;2024-03-07T12:19:48;11.10;99.90
19252;DHT22;9760;50.944;5.304;2024-03-07T12:22:19;11.10;99.90
19252;DHT22;9760;50.944;5.304;2024-03-07T12:24:58;10.80;99.90
19252;DHT22;9760;50.944;5.304;2024-03-07T12:27:24;10.90;99.90
19252;DHT22;9760;50.944;5.304;2024-03-07T12:29:50;10.90;99.90
19252;DHT22;9760;50.944;5.304;2024-03-07T12:32:18;10.80;99.90
19252;DHT22;9760;50.944;5.304;2024-03-07T12:34:43;10.50;99.90
19252;DHT22;9760;50.944;5.304;2024-03-07T12:37:13;10.30;99.90
19252;DHT22;9760;50.944;5.304;2024-03-07T12:39:45;10.40;99.90
19252;DHT22;9760;50.944;5.304;2024-03-07T12:42:15;10.30;99.90
19252;DHT22;9760;50.944;5.304;2024-03-07T12:44:44;10.20;99.90
19252;DHT22;9760;50.944;5.304;2024-03-07T12:47:16;10.30;99.90
19252;DHT22;9760;50.944;5.304;2024-03-07T12:49:43;10.30;99.90
19252;DHT22;9760;50.944;5.304;2024-03-07T12:52:10;10.20;99.90
19252;DHT22;9760;50.944;5.304;2024-03-07T12:54:38;10.50;99.90
19252;DHT22;9760;50.944;5.304;2024-03-07T12:57:12;10.50;99.90
19252;DHT22;9760;50.944;5.304;2024-03-07T12:59:38;10.40;99.90
19252;DHT22;9760;50.944;5.304;2024-03-07T13:02:06;10.40;99.90
19252;DHT22;9760;50.944;5.304;2024-03-07T13:04:33;10.40;99.90
19252;DHT22;9760;50.944;5.304;2024-03-07T13:06:58;10.40;99.90
19252;DHT22;9760;50.944;5.304;2024-03-07T13:09:30;10.30;99.90
19252;DHT22;9760;50.944;5.304;2024-03-07T13:11:57;10.20;99.90
19252;DHT22;9760;50.944;5.304;2024-03-07T13:14:23;10.30;99.90
19252;DHT22;9760;50.944;5.304;2024-03-07T13:16:48;10.40;99.90
19252;DHT22;9760;50.944;5.304;2024-03-07T13:19:15;10.60;99.90
19252;DHT22;9760;50.944;5.304;2024-03-07T13:21:47;10.50;99.90
19252;DHT22;9760;50.944;5.304;2024-03-07T13:24:14;10.20;99.90
19252;DHT22;9760;50.944;5.304;2024-03-07T13:26:40;10.40;99.90
19252;DHT22;9760;50.944;5.304;2024-03-07T13:29:07;10.40;99.90
19252;DHT22;9760;50.944;5.304;2024-03-07T13:31:35;10.30;99.90
19252;DHT22;9760;50.944;5.304;2024-03-07T13:34:01;10.30;99.90
19252;DHT22;9760;50.944;5.304;2024-03-07T13:36:27;10.40;99.90
19252;DHT22;9760;50.944;5.304;2024-03-07T13:38:53;10.50;99.90
19252;DHT22;9760;50.944;5.304;2024-03-07T13:41:21;10.50;99.90
19252;DHT22;9760;50.944;5.304;2024-03-07T13:43:47;10.40;99.90
19252;DHT22;9760;50.944;5.304;2024-03-07T13:46:14;10.50;99.90
19252;DHT22;9760;50.944;5.304;2024-03-07T13:48:41;10.50;99.90
19252;DHT22;9760;50.944;5.304;2024-03-07T13:51:09;10.60;99.90
19252;DHT22;9760;50.944;5.304;2024-03-07T13:53:40;10.60;99.90
19252;DHT22;9760;50.944;5.304;2024-03-07T13:56:41;10.50;99.90
19252;DHT22;9760;50.944;5.304;2024-03-07T13:59:23;10.40;99.90
19252;DHT22;9760;50.944;5.304;2024-03-07T14:02:04;10.50;99.90
19252;DHT22;9760;50.944;5.304;2024-03-07T14:05:34;10.60;99.90
19252;DHT22;9760;50.944;5.304;2024-03-07T14:27:59;10.80;99.90
19252;DHT22;9760;50.944;5.304;2024-03-07T14:30:50;10.90;99.90
19252;DHT22;9760;50.944;5.304;2024-03-07T14:33:22;10.90;99.90
19252;DHT22;9760;50.944;5.304;2024-03-07T14:36:07;10.80;99.90
19252;DHT22;9760;50.944;5.304;2024-03-07T14:38:52;10.80;99.90
19252;DHT22;9760;50.944;5.304;2024-03-07T14:41:23;10.80;99.90
19252;DHT22;9760;50.944;5.304;2024-03-07T14:43:51;10.80;99.90
19252;DHT22;9760;50.944;5.304;2024-03-07T14:46:17;10.90;99.90
19252;DHT22;9760;50.944;5.304;2024-03-07T14:48:43;10.90;99.90
19252;DHT22;9760;50.944;5.304;2024-03-07T14:51:11;10.90;99.90
19252;DHT22;9760;50.944;5.304;2024-03-07T14:53:39;11.00;99.90
19252;DHT22;9760;50.944;5.304;2024-03-07T14:56:07;11.10;99.90
19252;DHT22;9760;50.944;5.304;2024-03-07T14:58:33;11.30;99.90
19252;DHT22;9760;50.944;5.304;2024-03-07T15:00:59;11.30;99.90
19252;DHT22;9760;50.944;5.304;2024-03-07T15:03:27;11.30;99.90
19252;DHT22;9760;50.944;5.304;2024-03-07T15:05:54;11.10;99.90
19252;DHT22;9760;50.944;5.304;2024-03-07T15:08:20;11.00;99.90
19252;DHT22;9760;50.944;5.304;2024-03-07T15:11:03;11.00;99.90
19252;DHT22;9760;50.944;5.304;2024-03-07T15:13:34;11.10;99.90
19252;DHT22;9760;50.944;5.304;2024-03-07T15:16:00;11.00;99.90
19252;DHT22;9760;50.944;5.304;2024-03-07T15:18:25;11.00;99.90
19252;DHT22;9760;50.944;5.304;2024-03-07T15:20:52;11.00;99.90
19252;DHT22;9760;50.944;5.304;2024-03-07T15:23:18;10.90;99.90
19252;DHT22;9760;50.944;5.304;2024-03-07T15:25:44;10.90;99.90
19252;DHT22;9760;50.944;5.304;2024-03-07T15:28:09;10.80;99.90
19252;DHT22;9760;50.944;5.304;2024-03-07T15:30:35;10.80;99.90
19252;DHT22;9760;50.944;5.304;2024-03-07T15:33:02;10.80;99.90
19252;DHT22;9760;50.944;5.304;2024-03-07T15:35:29;10.90;99.90
19252;DHT22;9760;50.944;5.304;2024-03-07T15:37:56;10.90;99.90
19252;DHT22;9760;50.944;5.304;2024-03-07T15:40:22;11.00;99.90
19252;DHT22;9760;50.944;5.304;2024-03-07T15:42:50;10.80;99.90
19252;DHT22;9760;50.944;5.304;2024-03-07T15:45:23;10.80;99.90
19252;DHT22;9760;50.944;5.304;2024-03-07T15:50:16;10.80;99.90
19252;DHT22;9760;50.944;5.304;2024-03-07T15:52:47;10.80;99.90
19252;DHT22;9760;50.944;5.304;2024-03-07T15:55:13;10.90;99.90
19252;DHT22;9760;50.944;5.304;2024-03-07T15:57:44;11.00;99.90
19252;DHT22;9760;50.944;5.304;2024-03-07T16:00:13;11.00;99.90
19252;DHT22;9760;50.944;5.304;2024-03-07T16:05:34;10.90;99.90
19252;DHT22;9760;50.944;5.304;2024-03-07T16:08:01;10.80;99.90
19252;DHT22;9760;50.944;5.304;2024-03-07T16:10:32;10.70;99.90
19252;DHT22;9760;50.944;5.304;2024-03-07T16:13:00;10.80;99.90
19252;DHT22;9760;50.944;5.304;2024-03-07T16:15:27;10.60;99.90
19252;DHT22;9760;50.944;5.304;2024-03-07T16:17:54;10.50;99.90
19252;DHT22;9760;50.944;5.304;2024-03-07T16:20:22;10.40;99.90
19252;DHT22;9760;50.944;5.304;2024-03-07T16:22:48;10.30;99.90
19252;DHT22;9760;50.944;5.304;2024-03-07T16:25:18;10.30;99.90
19252;DHT22;9760;50.944;5.304;2024-03-07T16:27:46;10.20;99.90
19252;DHT22;9760;50.944;5.304;2024-03-07T16:30:18;10.30;99.90
19252;DHT22;9760;50.944;5.304;2024-03-07T16:32:45;10.20;99.90
19252;DHT22;9760;50.944;5.304;2024-03-07T16:35:16;10.20;99.90
19252;DHT22;9760;50.944;5.304;2024-03-07T16:37:43;10.30;99.90
19252;DHT22;9760;50.944;5.304;2024-03-07T16:40:11;10.20;99.90